Aérodrome :
LOGIN :

S'inscrire | Disclaimer

   EN    FR    IT 

 










Légende :    VFR   VFR Marginal   IFR   IFR Intensif   IFR Très Intensif
Visi : 
Plafond : 
>= 8 km
>= 3000ft
5 à 8 km
1000 à 3000 ft
1500m à 5 km
500 à 1000 ft
800 à 1500m
200 à 500 ft
< 800m
< 200 ft
Symboles :   Orages  Brouillard  Fortes neiges  Fortes précipitations  Vent > 20 kt
SIGMETs :   Divers  Orages  Givrage  Turbulence  Onde Orograph.  Cendres Volcan.






- Altitude de l'aérodrome : 935 ft


EBFS - Florennes

DERNIER METAR :
  • 211325Z AUTO 03014KT 9999 FEW030/// SCT049/// BKN090/// 07/01 Q1023 BLU

METARs EXPIRÉS :
  • 211255Z AUTO 03012KT 9999 FEW038/// OVC045/// 07/01 Q1023 BLU
  • 211225Z AUTO 02014KT 9999 FEW026/// BKN045/// 07/01 Q1023 BLU
  • 211155Z AUTO 03014KT 9999 FEW023/// SCT035/// BKN042/// 06/01 Q1023 BLU
  • 211125Z AUTO 02013KT 9999 FEW016/// SCT030/// BKN036/// 05/02 Q1022 BLU
  • 211055Z AUTO 03012KT 9999 -RA FEW015/// SCT023/// BKN039/// 04/02 Q1022 WHT
  • 211025Z AUTO 04012KT 9999 DZ FEW013/// SCT018/// BKN037/// 03/02 Q1022 WHT
  • 211017Z AUTO 03012KT 9999 FEW013/// BKN038/// OVC045/// 04/01 Q1022 BLU
  • 210955Z AUTO 02013KT 9999 FEW012/// SCT022/// OVC039/// 04/01 Q1022 WHT
  • 210936Z AUTO 01012KT 9999 FEW011/// SCT014/// BKN027/// 04/02 Q1021 GRN
  • 210855Z AUTO 36010KT 9999 FEW009/// SCT024/// BKN034/// 04/01 Q1021 WHT
  • 210925Z AUTO 01012KT 9999 FEW011/// SCT017/// BKN039/// 05/03 Q1021 WHT

Prévision TAF périmée.



MET'MAP, la Météo Aéronautique d'un coup d'oeil ! - Copyright ORBIFLY Décembre 2007 - Disclaimer

ORBIFLY MET'MAP TEAM :

Programmation & Développement : Alexandra Zaïnal
Sur une idée originale de : Baudouin d'Aumeries
Soutien technique & logistique : Manuel Goepfert
Assistance : Marc-Olivier Méhu




SOURCES & CREDITS :

   NOAA